Voidomatis — A8FX2 — position and weather

sailwx.info

Track history (hours):
 
Tides and Currents Weather Stations Pressure Air Temp Water Temp Dewpoint Dewpoint Depression Visibility Wind Speed Wind Dir Waves Ship Positions

Voidomatis

Last reported at 2017-Aug-12 01:55 UTC. Time now 2017-Aug-20 22:46 UTC.
Position N 09°37' W 079°46'.
Warning: this ship's position is 8 days out of date.

Length 214 m; draft 7.2 m.

Type: Tanker. MMSI: 636012508.

Date/timePositionNaut miles runAvg speedWind from/ knotsBaromVisibWave heightAir tempDewpointWater temp
2017-Aug-12 01:55N 09°37' W 079°46'512.4
2017-Aug-12 01:30N 09°33' W 079°49'611.8
2017-Aug-12 01:00N 09°28' W 079°53'4 8.3
2017-Aug-12 00:30N 09°26' W 079°56'0 0.0
2017-Aug-12 00:00N 09°26' W 079°56'0 0.1
2017-Aug-11 23:24N 09°26' W 079°56'0 0.3
2017-Aug-11 23:00N 09°26' W 079°56'0 0.0
2017-Aug-11 22:30N 09°26' W 079°56'0 0.0
2017-Aug-11 21:57N 09°26' W 079°56'0 0.0
2017-Aug-11 21:30N 09°26' W 079°56'0 0.0
2017-Aug-11 20:57N 09°26' W 079°56'0 0.1
2017-Aug-11 20:30N 09°26' W 079°56'0 0.1
2017-Aug-11 19:57N 09°26' W 079°56'0 0.0
2017-Aug-11 19:30N 09°26' W 079°56'0 0.2
2017-Aug-11 19:00N 09°26' W 079°56'2 3.1
2017-Aug-11 18:30N 09°25' W 079°55'5 9.5
2017-Aug-11 18:00N 09°21' W 079°55'3 6.1
2017-Aug-11 17:31N 09°18' W 079°55'1 2.1
2017-Aug-11 17:00N 09°17' W 079°55'0 0.5
2017-Aug-11 16:30N 09°16' W 079°55'0 0.7
2017-Aug-11 16:00N 09°16' W 079°55'1 1.3
2017-Aug-11 15:30N 09°15' W 079°55'3 5.1
2017-Aug-11 15:00N 09°13' W 079°55'7 8.6
2017-Aug-11 14:11N 09°10' W 079°49'  
Track history (hours):
 
Tides and Currents Weather Stations Pressure Air Temp Water Temp Dewpoint Dewpoint Depression Visibility Wind Speed Wind Dir Waves Ship Positions

Voidomatis

Last reported at 2017-Aug-12 01:55 UTC. Time now 2017-Aug-20 22:46 UTC.
Position N 09°37' W 079°46'.
Warning: this ship's position is 8 days out of date.

Length 214 m; draft 7.2 m.

Type: Tanker. MMSI: 636012508.

Date/timePositionNaut miles runAvg speedWind from/ knotsBaromVisibWave heightAir tempDewpointWater temp
2017-Aug-12 01:55N 09°37' W 079°46'512.4
2017-Aug-12 01:30N 09°33' W 079°49'611.8
2017-Aug-12 01:00N 09°28' W 079°53'4 8.3
2017-Aug-12 00:30N 09°26' W 079°56'0 0.0
2017-Aug-12 00:00N 09°26' W 079°56'0 0.1
2017-Aug-11 23:24N 09°26' W 079°56'0 0.3
2017-Aug-11 23:00N 09°26' W 079°56'0 0.0
2017-Aug-11 22:30N 09°26' W 079°56'0 0.0
2017-Aug-11 21:57N 09°26' W 079°56'0 0.0
2017-Aug-11 21:30N 09°26' W 079°56'0 0.0
2017-Aug-11 20:57N 09°26' W 079°56'0 0.1
2017-Aug-11 20:30N 09°26' W 079°56'0 0.1
2017-Aug-11 19:57N 09°26' W 079°56'0 0.0
2017-Aug-11 19:30N 09°26' W 079°56'0 0.2
2017-Aug-11 19:00N 09°26' W 079°56'2 3.1
2017-Aug-11 18:30N 09°25' W 079°55'5 9.5
2017-Aug-11 18:00N 09°21' W 079°55'3 6.1
2017-Aug-11 17:31N 09°18' W 079°55'1 2.1
2017-Aug-11 17:00N 09°17' W 079°55'0 0.5
2017-Aug-11 16:30N 09°16' W 079°55'0 0.7
2017-Aug-11 16:00N 09°16' W 079°55'1 1.3
2017-Aug-11 15:30N 09°15' W 079°55'3 5.1
2017-Aug-11 15:00N 09°13' W 079°55'7 8.6
2017-Aug-11 14:11N 09°10' W 079°49'  

Dump ship's entire track history